createdAt,value
2023-04-26T00:01:05.601Z,10.38
2023-04-26T00:03:33.009Z,10.33
2023-04-26T00:06:05.436Z,10.36
2023-04-26T00:08:31.891Z,10.33
2023-04-26T00:10:58.217Z,10.38
2023-04-26T00:13:24.627Z,10.42
2023-04-26T00:15:50.997Z,10.35
2023-04-26T00:18:20.318Z,10.32
2023-04-26T00:20:46.734Z,10.28
2023-04-26T00:23:13.228Z,10.24
2023-04-26T00:25:39.649Z,10.19
2023-04-26T00:28:06.088Z,10.18
2023-04-26T00:30:34.319Z,10.12
2023-04-26T00:33:00.728Z,10.10
2023-04-26T00:35:27.103Z,9.87
2023-04-26T00:37:53.443Z,9.70
2023-04-26T00:40:20.559Z,9.83
2023-04-26T00:42:46.961Z,9.83
2023-04-26T00:45:13.339Z,9.86
2023-04-26T00:47:40.852Z,9.82
2023-04-26T00:50:08.341Z,9.97
2023-04-26T00:52:35.216Z,10.01
2023-04-26T00:55:02.403Z,10.11
2023-04-26T00:57:28.797Z,10.06
2023-04-26T00:59:55.137Z,10.00
2023-04-26T01:02:21.674Z,10.00
2023-04-26T01:04:48.307Z,10.03
2023-04-26T01:07:15.210Z,10.03
2023-04-26T01:09:42.096Z,10.03
2023-04-26T01:12:09.112Z,10.01
2023-04-26T01:14:38.863Z,9.98
2023-04-26T01:17:06.057Z,9.99
2023-04-26T01:19:32.545Z,10.01
2023-04-26T01:21:58.976Z,10.01
2023-04-26T01:24:25.589Z,9.99
2023-04-26T01:26:52.069Z,9.98
2023-04-26T01:29:20.376Z,9.90
2023-04-26T01:31:48.558Z,9.93
2023-04-26T01:34:15.815Z,9.88
2023-04-26T01:36:42.678Z,9.92
2023-04-26T01:39:09.548Z,9.91
2023-04-26T01:41:36.576Z,9.99
2023-04-26T01:44:02.962Z,10.01
2023-04-26T01:46:29.364Z,10.02
2023-04-26T01:48:57.208Z,10.00
2023-04-26T01:51:23.591Z,9.99
2023-04-26T01:53:50.123Z,10.00
2023-04-26T01:56:16.668Z,9.93
2023-04-26T01:58:43.018Z,9.95
2023-04-26T02:01:10.062Z,9.87
2023-04-26T02:03:36.568Z,9.85
2023-04-26T02:06:03.928Z,9.81
2023-04-26T02:08:30.661Z,9.81
2023-04-26T02:10:57.193Z,9.69
2023-04-26T02:13:23.941Z,9.65
2023-04-26T02:15:51.327Z,9.57
2023-04-26T02:18:17.800Z,9.57
2023-04-26T02:20:45.590Z,9.46
2023-04-26T02:23:12.503Z,9.56
2023-04-26T02:25:39.345Z,9.66
2023-04-26T02:28:06.400Z,9.67
2023-04-26T02:30:32.987Z,9.61
2023-04-26T02:32:59.562Z,9.68
2023-04-26T02:35:26.649Z,9.71
2023-04-26T02:37:53.013Z,9.69
2023-04-26T02:40:19.931Z,9.71
2023-04-26T02:42:46.646Z,9.72
2023-04-26T02:45:13.266Z,9.66
2023-04-26T02:47:39.963Z,9.66
2023-04-26T02:50:08.354Z,9.66
2023-04-26T02:52:37.815Z,9.61
2023-04-26T02:55:04.924Z,9.64
2023-04-26T02:57:32.097Z,9.54
2023-04-26T02:59:59.331Z,9.43
2023-04-26T03:02:25.917Z,9.37
2023-04-26T03:04:52.528Z,9.32
2023-04-26T03:07:18.882Z,9.28
2023-04-26T03:09:45.669Z,9.25
2023-04-26T03:12:12.021Z,9.24
2023-04-26T03:14:38.359Z,9.14
2023-04-26T03:17:04.686Z,9.16
2023-04-26T03:19:31.281Z,9.15
2023-04-26T03:21:57.635Z,9.14
2023-04-26T03:24:23.993Z,9.17
2023-04-26T03:26:50.312Z,9.16
2023-04-26T03:29:17.152Z,9.19
2023-04-26T03:31:43.782Z,9.21
2023-04-26T03:34:10.253Z,9.17
2023-04-26T03:36:36.645Z,9.23
2023-04-26T03:39:03.652Z,9.20
2023-04-26T03:41:30.019Z,9.22
2023-04-26T03:43:56.444Z,9.25
2023-04-26T03:46:22.888Z,9.25
2023-04-26T03:48:49.516Z,9.31
2023-04-26T03:51:16.139Z,9.36
2023-04-26T03:53:42.480Z,9.38
2023-04-26T03:56:08.809Z,9.39
2023-04-26T03:58:35.160Z,9.34
2023-04-26T04:01:01.497Z,9.30
2023-04-26T04:03:30.127Z,9.33
2023-04-26T04:05:56.733Z,9.41
2023-04-26T04:08:23.124Z,9.48
2023-04-26T04:10:49.674Z,9.55
2023-04-26T04:13:16.064Z,9.40
2023-04-26T04:15:42.434Z,9.38
2023-04-26T04:18:08.912Z,9.29
2023-04-26T04:20:35.405Z,9.12
2023-04-26T04:23:04.221Z,9.06
2023-04-26T04:25:30.542Z,9.04
2023-04-26T04:27:58.195Z,9.10
2023-04-26T04:30:26.200Z,9.03
2023-04-26T04:32:52.689Z,9.11
2023-04-26T04:35:19.068Z,9.25
2023-04-26T04:37:45.498Z,9.31
2023-04-26T04:40:13.214Z,9.38
2023-04-26T04:42:39.697Z,9.38
2023-04-26T04:45:06.788Z,9.48
2023-04-26T04:47:33.937Z,9.55
2023-04-26T04:50:00.320Z,9.52
2023-04-26T04:52:26.960Z,9.60
2023-04-26T04:54:53.281Z,9.64
2023-04-26T04:57:20.125Z,9.62
2023-04-26T04:59:46.491Z,9.62
2023-04-26T05:02:12.973Z,9.54
2023-04-26T05:04:39.568Z,9.56
2023-04-26T05:07:06.666Z,9.56
2023-04-26T05:09:33.295Z,9.50
2023-04-26T05:11:59.829Z,9.54
2023-04-26T05:14:26.431Z,9.61
2023-04-26T05:16:52.899Z,9.56
2023-04-26T05:19:19.330Z,9.66
2023-04-26T05:21:45.790Z,9.70
2023-04-26T05:24:12.104Z,9.73
2023-04-26T05:26:38.624Z,9.78
2023-04-26T05:29:04.973Z,9.77
2023-04-26T05:31:31.539Z,9.77
2023-04-26T05:33:58.048Z,9.64
2023-04-26T05:36:24.452Z,9.51
2023-04-26T05:38:50.794Z,9.66
2023-04-26T05:41:17.139Z,9.59
2023-04-26T05:43:43.451Z,9.66
2023-04-26T05:46:09.853Z,9.67
2023-04-26T05:48:36.414Z,9.67
2023-04-26T05:51:02.913Z,9.59
2023-04-26T05:53:29.241Z,9.62
2023-04-26T05:55:55.677Z,9.69
2023-04-26T05:58:22.054Z,9.70
2023-04-26T06:00:48.450Z,9.66
2023-04-26T06:03:15.080Z,9.53
2023-04-26T06:05:41.807Z,9.52
2023-04-26T06:08:08.368Z,9.35
2023-04-26T06:10:35.831Z,9.52
2023-04-26T06:13:02.156Z,9.52
2023-04-26T06:15:28.627Z,9.60
2023-04-26T06:17:55.036Z,9.55
2023-04-26T06:20:21.690Z,9.54
2023-04-26T06:22:48.086Z,9.59
2023-04-26T06:25:15.251Z,9.60
2023-04-26T06:27:41.818Z,9.71
2023-04-26T06:30:09.019Z,9.52
2023-04-26T06:32:35.664Z,9.64
2023-04-26T06:35:02.066Z,9.77
2023-04-26T06:37:28.384Z,9.81
2023-04-26T06:39:54.827Z,9.88
2023-04-26T06:42:21.195Z,9.86
2023-04-26T06:44:47.498Z,9.88
2023-04-26T06:47:14.309Z,9.88
2023-04-26T06:49:41.030Z,9.86
2023-04-26T06:52:09.080Z,9.94
2023-04-26T06:54:40.002Z,9.87
2023-04-26T06:57:12.802Z,9.85
2023-04-26T06:59:39.133Z,9.88
2023-04-26T07:02:05.725Z,9.94
2023-04-26T07:04:32.232Z,9.92
2023-04-26T07:06:58.958Z,9.83
2023-04-26T07:09:25.364Z,9.74
2023-04-26T07:11:51.749Z,9.75
2023-04-26T07:14:18.873Z,9.78
2023-04-26T07:16:46.096Z,9.76
2023-04-26T07:19:12.569Z,9.83
2023-04-26T07:21:38.940Z,9.86
2023-04-26T07:24:06.207Z,9.93
2023-04-26T07:26:32.775Z,9.79
2023-04-26T07:29:00.830Z,9.87
2023-04-26T07:31:27.444Z,9.80
2023-04-26T07:33:54.137Z,9.91
2023-04-26T07:36:22.962Z,9.99
2023-04-26T07:38:50.286Z,10.02
2023-04-26T07:41:17.732Z,10.07
2023-04-26T07:43:44.115Z,10.13
2023-04-26T07:46:10.570Z,9.99
2023-04-26T07:48:37.027Z,10.03
2023-04-26T07:51:11.132Z,10.14
2023-04-26T07:53:38.666Z,10.12
2023-04-26T07:56:07.740Z,10.26
2023-04-26T07:58:36.005Z,10.31
2023-04-26T08:01:03.654Z,10.31
2023-04-26T08:03:30.249Z,10.23
2023-04-26T08:05:58.888Z,10.25
2023-04-26T08:08:26.778Z,10.34
2023-04-26T08:10:53.386Z,10.43
2023-04-26T08:13:19.845Z,10.48
2023-04-26T08:15:46.261Z,10.57
2023-04-26T08:18:13.137Z,10.45
2023-04-26T08:20:39.536Z,10.40
2023-04-26T08:23:05.873Z,10.49
2023-04-26T08:25:34.622Z,10.57
2023-04-26T08:28:01.689Z,10.47
2023-04-26T08:30:28.040Z,10.61
2023-04-26T08:32:54.421Z,10.70
2023-04-26T08:35:21.517Z,10.59
2023-04-26T08:37:47.883Z,10.49
2023-04-26T08:40:14.376Z,10.46
2023-04-26T08:42:43.837Z,10.61
2023-04-26T08:45:13.564Z,10.73
2023-04-26T08:47:51.405Z,10.71
2023-04-26T08:50:22.531Z,10.69
2023-04-26T08:52:51.390Z,10.76
2023-04-26T08:55:19.815Z,10.82
2023-04-26T08:57:47.417Z,10.91
2023-04-26T09:00:16.157Z,11.02
2023-04-26T09:02:47.195Z,11.07
2023-04-26T09:05:14.170Z,11.23
2023-04-26T09:07:47.615Z,11.16
2023-04-26T09:10:19.206Z,11.16
2023-04-26T09:12:45.544Z,11.19
2023-04-26T09:15:14.309Z,11.15
2023-04-26T09:17:41.998Z,11.29
2023-04-26T09:20:22.401Z,11.49
2023-04-26T09:22:50.854Z,11.45
2023-04-26T09:25:19.867Z,11.52
2023-04-26T09:27:46.601Z,11.49
2023-04-26T09:30:17.249Z,11.62
2023-04-26T09:32:51.503Z,11.61
2023-04-26T09:35:31.398Z,11.64
2023-04-26T09:38:12.778Z,11.60
2023-04-26T09:40:50.359Z,11.09
2023-04-26T09:43:21.617Z,11.41
2023-04-26T09:45:55.670Z,11.34
2023-04-26T09:48:26.486Z,11.44
2023-04-26T09:50:54.706Z,11.49
2023-04-26T09:53:27.886Z,11.66
2023-04-26T09:56:08.649Z,11.19
2023-04-26T09:58:38.204Z,11.36
2023-04-26T10:01:05.834Z,11.64
2023-04-26T10:03:34.561Z,11.81
2023-04-26T10:06:01.291Z,12.09
2023-04-26T10:08:27.605Z,12.07
2023-04-26T10:10:55.282Z,12.28
2023-04-26T10:13:21.974Z,12.38
2023-04-26T10:15:48.957Z,12.58
2023-04-26T10:18:15.838Z,12.63
2023-04-26T10:20:46.071Z,12.81
2023-04-26T10:23:20.942Z,12.78
2023-04-26T10:25:47.993Z,12.78
2023-04-26T10:28:14.428Z,12.83
2023-04-26T10:30:58.334Z,12.93
2023-04-26T10:33:26.108Z,12.96
2023-04-26T10:36:04.892Z,13.19
2023-04-26T10:38:32.264Z,13.42
2023-04-26T10:41:34.709Z,13.60
2023-04-26T10:44:41.123Z,13.59
2023-04-26T10:47:21.263Z,13.55
2023-04-26T10:49:48.437Z,13.66
2023-04-26T10:52:17.393Z,13.71
2023-04-26T10:54:47.350Z,13.81
2023-04-26T10:57:14.873Z,13.71
2023-04-26T11:00:10.789Z,14.00
2023-04-26T11:02:53.381Z,14.19
2023-04-26T11:05:37.461Z,14.27
2023-04-26T11:08:09.818Z,14.45
2023-04-26T11:10:39.425Z,14.57
2023-04-26T11:13:06.063Z,14.66
2023-04-26T11:15:32.613Z,14.36
2023-04-26T11:18:03.071Z,14.35
2023-04-26T11:20:31.669Z,14.45
2023-04-26T11:22:58.753Z,14.55
2023-04-26T11:25:27.909Z,13.91
2023-04-26T11:28:02.238Z,13.87
2023-04-26T11:30:32.735Z,13.94
2023-04-26T11:33:00.377Z,13.93
2023-04-26T11:35:29.382Z,13.87
2023-04-26T11:38:00.050Z,13.82
2023-04-26T11:40:31.281Z,13.78
2023-04-26T11:43:02.358Z,13.56
2023-04-26T11:45:28.965Z,13.77
2023-04-26T11:47:55.937Z,13.73
2023-04-26T11:50:26.618Z,13.76
2023-04-26T11:52:56.927Z,14.05
2023-04-26T11:55:33.018Z,14.20
2023-04-26T11:58:00.118Z,14.41
2023-04-26T12:00:27.281Z,14.26
2023-04-26T12:02:54.087Z,14.12
2023-04-26T12:05:25.175Z,14.44
2023-04-26T12:07:53.604Z,14.66
2023-04-26T12:10:32.456Z,14.72
2023-04-26T12:12:59.935Z,14.67
2023-04-26T12:15:31.264Z,14.81
2023-04-26T12:18:09.891Z,15.06
2023-04-26T12:20:41.419Z,15.33
2023-04-26T12:23:10.038Z,15.44
2023-04-26T12:25:38.308Z,15.56
2023-04-26T12:28:08.250Z,15.65
2023-04-26T12:30:34.584Z,15.42
2023-04-26T12:33:14.984Z,15.60
2023-04-26T12:35:43.237Z,15.65
2023-04-26T12:38:09.784Z,15.86
2023-04-26T12:40:36.674Z,15.97
2023-04-26T12:43:03.358Z,16.06
2023-04-26T12:45:29.773Z,16.19
2023-04-26T12:47:56.416Z,16.32
2023-04-26T12:50:22.857Z,16.28
2023-04-26T12:52:49.252Z,16.36
2023-04-26T12:55:16.313Z,16.25
2023-04-26T12:57:44.012Z,16.45
2023-04-26T13:00:15.960Z,16.59
2023-04-26T13:02:42.664Z,16.57
2023-04-26T13:05:10.152Z,16.58
2023-04-26T13:07:39.144Z,16.77
2023-04-26T13:10:06.843Z,16.90
2023-04-26T13:12:34.653Z,17.14
2023-04-26T13:15:01.088Z,17.27
2023-04-26T13:17:27.913Z,17.32
2023-04-26T13:19:54.478Z,17.47
2023-04-26T13:22:21.306Z,17.52
2023-04-26T13:24:47.742Z,17.56
2023-04-26T13:27:14.258Z,17.47
2023-04-26T13:29:41.088Z,17.58
2023-04-26T13:32:08.242Z,17.63
2023-04-26T13:34:35.794Z,17.55
2023-04-26T13:37:03.801Z,17.69
2023-04-26T13:39:30.403Z,17.88
2023-04-26T13:41:58.645Z,18.11
2023-04-26T13:44:26.610Z,18.31
2023-04-26T13:46:55.869Z,18.45
2023-04-26T13:49:23.023Z,18.23
2023-04-26T13:51:49.515Z,17.71
2023-04-26T13:54:16.737Z,17.82
2023-04-26T13:56:43.064Z,17.78
2023-04-26T13:59:09.389Z,18.02
2023-04-26T14:01:36.213Z,18.18
2023-04-26T14:04:03.900Z,18.45
2023-04-26T14:06:32.502Z,18.68
2023-04-26T14:08:58.877Z,18.77
2023-04-26T14:11:25.298Z,18.95
2023-04-26T14:13:55.724Z,19.04
2023-04-26T14:16:25.907Z,19.07
2023-04-26T14:18:52.637Z,18.96
2023-04-26T14:21:19.629Z,19.00
2023-04-26T14:23:46.180Z,19.03
2023-04-26T14:26:12.762Z,18.98
2023-04-26T14:28:39.386Z,19.18
2023-04-26T14:31:05.869Z,19.32
2023-04-26T14:33:32.298Z,19.41
2023-04-26T14:35:58.876Z,19.39
2023-04-26T14:38:25.375Z,19.53
2023-04-26T14:40:51.927Z,19.46
2023-04-26T14:43:18.396Z,19.20
2023-04-26T14:45:45.266Z,19.37
2023-04-26T14:48:12.349Z,19.45
2023-04-26T14:50:38.899Z,19.53
2023-04-26T14:53:05.283Z,19.56
2023-04-26T14:55:32.333Z,19.63
2023-04-26T14:57:58.763Z,19.33
2023-04-26T15:00:25.492Z,19.41
2023-04-26T15:02:51.932Z,19.67
2023-04-26T15:05:18.572Z,19.55
2023-04-26T15:07:44.918Z,19.55
2023-04-26T15:10:11.699Z,19.58
2023-04-26T15:12:38.075Z,19.47
2023-04-26T15:15:04.988Z,18.98
2023-04-26T15:17:32.588Z,19.01
2023-04-26T15:19:58.980Z,19.15
2023-04-26T15:22:26.252Z,19.57
2023-04-26T15:24:52.718Z,19.99
2023-04-26T15:27:19.149Z,20.32
2023-04-26T15:29:46.053Z,20.44
2023-04-26T15:32:12.450Z,20.45
2023-04-26T15:34:40.768Z,20.32
2023-04-26T15:37:07.224Z,20.23
2023-04-26T15:39:33.565Z,20.21
2023-04-26T15:41:59.890Z,20.17
2023-04-26T15:44:26.645Z,20.06
2023-04-26T15:46:53.026Z,19.61
2023-04-26T15:49:19.403Z,19.59
2023-04-26T15:51:45.760Z,19.33
2023-04-26T15:54:12.305Z,19.23
2023-04-26T15:56:38.647Z,19.22
2023-04-26T15:59:04.979Z,19.23
2023-04-26T16:01:31.667Z,19.26
2023-04-26T16:03:58.333Z,19.08
2023-04-26T16:06:24.858Z,19.44
2023-04-26T16:08:51.269Z,19.60
2023-04-26T16:11:17.641Z,19.53
2023-04-26T16:13:44.584Z,19.48
2023-04-26T16:16:11.414Z,18.27
2023-04-26T16:18:40.811Z,18.37
2023-04-26T16:21:09.298Z,18.27
2023-04-26T16:23:36.528Z,18.49
2023-04-26T16:26:03.039Z,18.38
2023-04-26T16:28:29.857Z,18.57
2023-04-26T16:30:56.289Z,16.57
2023-04-26T16:33:23.617Z,16.78
2023-04-26T16:35:57.776Z,17.05
2023-04-26T16:38:24.332Z,17.44
2023-04-26T16:40:58.120Z,17.79
2023-04-26T16:43:27.089Z,17.98
2023-04-26T16:46:03.764Z,18.24
2023-04-26T16:48:35.083Z,18.37
2023-04-26T16:51:04.672Z,18.60
2023-04-26T16:53:33.114Z,18.61
2023-04-26T16:56:00.333Z,18.53
2023-04-26T16:58:26.795Z,18.41
2023-04-26T17:00:53.266Z,18.42
2023-04-26T17:03:19.932Z,18.46
2023-04-26T17:05:47.886Z,18.66
2023-04-26T17:08:15.772Z,18.93
2023-04-26T17:10:42.813Z,18.58
2023-04-26T17:13:10.864Z,18.71
2023-04-26T17:15:37.249Z,19.07
2023-04-26T17:18:04.534Z,19.20
2023-04-26T17:20:31.854Z,19.09
2023-04-26T17:23:02.232Z,18.88
2023-04-26T17:25:28.685Z,17.86
2023-04-26T17:27:55.072Z,17.68
2023-04-26T17:30:22.651Z,17.29
2023-04-26T17:32:49.084Z,17.29
2023-04-26T17:35:15.715Z,16.63
2023-04-26T17:37:42.184Z,15.86
2023-04-26T17:40:09.072Z,16.26
2023-04-26T17:42:35.512Z,16.19
2023-04-26T17:45:01.959Z,15.79
2023-04-26T17:47:28.737Z,15.95
2023-04-26T17:49:55.315Z,15.97
2023-04-26T17:52:21.737Z,15.68
2023-04-26T17:54:48.198Z,15.33
2023-04-26T17:57:17.693Z,15.44
2023-04-26T17:59:44.350Z,15.56
2023-04-26T18:02:10.946Z,15.34
2023-04-26T18:04:37.588Z,14.94
2023-04-26T18:07:04.384Z,15.03
2023-04-26T18:09:31.085Z,14.87
2023-04-26T18:11:57.458Z,14.93
2023-04-26T18:14:24.958Z,15.27
2023-04-26T18:16:51.779Z,15.20
2023-04-26T18:19:18.145Z,15.27
2023-04-26T18:21:44.474Z,15.17
2023-04-26T18:24:11.218Z,15.25
2023-04-26T18:26:39.270Z,15.22
2023-04-26T18:29:07.442Z,15.28
2023-04-26T18:31:34.024Z,15.52
2023-04-26T18:34:00.398Z,15.40
2023-04-26T18:36:27.111Z,15.38
2023-04-26T18:38:53.474Z,15.20
2023-04-26T18:41:19.818Z,15.18
2023-04-26T18:43:46.159Z,15.26
2023-04-26T18:46:12.560Z,15.37
2023-04-26T18:48:38.915Z,15.43
2023-04-26T18:51:05.233Z,15.27
2023-04-26T18:53:31.599Z,15.09
2023-04-26T18:55:57.945Z,15.21
2023-04-26T18:58:24.334Z,15.17
2023-04-26T19:00:50.756Z,14.98
2023-04-26T19:03:17.355Z,15.05
2023-04-26T19:05:43.870Z,14.92
2023-04-26T19:08:10.457Z,14.90
2023-04-26T19:10:36.789Z,14.92
2023-04-26T19:13:03.592Z,14.76
2023-04-26T19:15:30.021Z,15.06
2023-04-26T19:17:56.456Z,15.36
2023-04-26T19:20:23.690Z,15.53
2023-04-26T19:22:50.260Z,15.34
2023-04-26T19:25:20.343Z,15.42
2023-04-26T19:27:46.696Z,15.43
2023-04-26T19:30:13.592Z,15.66
2023-04-26T19:32:40.131Z,15.73
2023-04-26T19:35:07.272Z,15.71
2023-04-26T19:37:33.675Z,15.51
2023-04-26T19:40:00.010Z,15.16
2023-04-26T19:42:26.699Z,14.96
2023-04-26T19:44:53.387Z,14.97
2023-04-26T19:47:20.127Z,15.13
2023-04-26T19:49:47.809Z,14.82
2023-04-26T19:52:14.433Z,15.06
2023-04-26T19:54:40.846Z,15.27
2023-04-26T19:57:07.335Z,15.29
2023-04-26T19:59:33.697Z,14.99
2023-04-26T20:02:00.068Z,15.18
2023-04-26T20:04:26.721Z,15.45
2023-04-26T20:06:53.145Z,15.49
2023-04-26T20:09:19.561Z,15.13
2023-04-26T20:11:45.913Z,14.87
2023-04-26T20:14:12.271Z,14.81
2023-04-26T20:16:38.701Z,15.12
2023-04-26T20:19:05.420Z,15.34
2023-04-26T20:21:32.458Z,15.50
2023-04-26T20:23:58.862Z,15.57
2023-04-26T20:26:25.228Z,15.67
2023-04-26T20:28:51.595Z,15.67
2023-04-26T20:31:18.651Z,15.30
2023-04-26T20:33:45.416Z,15.08
2023-04-26T20:36:11.838Z,14.99
2023-04-26T20:38:38.822Z,15.13
2023-04-26T20:41:05.169Z,15.12
2023-04-26T20:43:31.505Z,15.29
2023-04-26T20:45:57.872Z,15.29
2023-04-26T20:48:24.286Z,15.38
2023-04-26T20:50:53.717Z,15.44
2023-04-26T20:53:20.085Z,15.53
2023-04-26T20:55:46.773Z,15.57
2023-04-26T20:58:13.092Z,15.64
2023-04-26T21:00:39.666Z,15.63
2023-04-26T21:03:06.158Z,15.38
2023-04-26T21:05:32.643Z,15.32
2023-04-26T21:07:58.970Z,15.30
2023-04-26T21:10:25.389Z,15.20
2023-04-26T21:12:51.834Z,15.22
2023-04-26T21:15:18.233Z,15.11
2023-04-26T21:17:44.604Z,14.80
2023-04-26T21:20:11.450Z,14.80
2023-04-26T21:22:37.771Z,14.54
2023-04-26T21:25:04.408Z,14.47
2023-04-26T21:27:30.953Z,14.71
2023-04-26T21:29:57.280Z,14.73
2023-04-26T21:32:23.707Z,14.56
2023-04-26T21:34:50.080Z,14.72
2023-04-26T21:37:16.674Z,14.89
2023-04-26T21:39:43.023Z,14.99
2023-04-26T21:42:09.393Z,15.11
2023-04-26T21:44:35.977Z,15.12
2023-04-26T21:47:02.664Z,15.19
2023-04-26T21:49:29.143Z,15.27
2023-04-26T21:51:55.535Z,15.28
2023-04-26T21:54:21.920Z,15.28
2023-04-26T21:56:48.252Z,15.24
2023-04-26T21:59:15.156Z,15.23
2023-04-26T22:01:41.557Z,15.18
2023-04-26T22:04:08.211Z,15.16
2023-04-26T22:06:34.602Z,15.17
2023-04-26T22:09:00.944Z,15.17
2023-04-26T22:11:27.347Z,15.12
2023-04-26T22:13:53.689Z,15.16
2023-04-26T22:16:20.072Z,15.07
2023-04-26T22:18:46.452Z,15.13
2023-04-26T22:21:12.781Z,15.10
2023-04-26T22:23:39.131Z,15.08
2023-04-26T22:26:05.694Z,15.03
2023-04-26T22:28:32.145Z,15.01
2023-04-26T22:30:58.501Z,15.04
2023-04-26T22:33:25.049Z,15.04
2023-04-26T22:35:51.392Z,15.02
2023-04-26T22:38:17.714Z,14.99
2023-04-26T22:40:44.047Z,14.94
2023-04-26T22:43:10.553Z,14.99
2023-04-26T22:45:37.171Z,15.01
2023-04-26T22:48:03.835Z,14.96
2023-04-26T22:50:30.412Z,15.02
2023-04-26T22:52:56.871Z,14.94
2023-04-26T22:55:23.393Z,14.94
2023-04-26T22:57:49.738Z,14.92
2023-04-26T23:00:16.282Z,14.83
2023-04-26T23:02:43.034Z,14.81
2023-04-26T23:05:10.114Z,14.77
2023-04-26T23:07:40.376Z,14.76
2023-04-26T23:10:07.320Z,14.72
2023-04-26T23:12:33.747Z,14.71
2023-04-26T23:15:00.119Z,14.60
2023-04-26T23:17:27.587Z,14.46
2023-04-26T23:19:54.205Z,14.56
2023-04-26T23:22:20.783Z,14.56
2023-04-26T23:24:47.203Z,14.53
2023-04-26T23:27:13.601Z,14.42
2023-04-26T23:29:40.022Z,14.42
2023-04-26T23:32:06.428Z,14.40
2023-04-26T23:34:32.788Z,14.34
2023-04-26T23:36:59.191Z,14.27
2023-04-26T23:39:35.045Z,14.31
2023-04-26T23:42:02.330Z,14.27
2023-04-26T23:44:28.756Z,14.25
2023-04-26T23:46:55.512Z,14.26
2023-04-26T23:49:21.962Z,14.22
2023-04-26T23:51:48.357Z,14.27
2023-04-26T23:54:14.702Z,14.25
2023-04-26T23:56:41.391Z,14.15
2023-04-26T23:59:07.757Z,14.16
